Time;durP1;ratioP1;P1;durP2;ratioP2;P2;SDS_P1;SDS_P2;PMS_P1;PMS_P2;Temp;Humidity;BMP_temperature;BMP_pressure;BME280_temperature;BME280_humidity;BME280_pressure;Samples;Min_cycle;Max_cycle;Signal;HPM_P1;HPM_P2
2023/09/24 00:02:11;;;;;;;3.55;1.67;;;;;;;24.45;90.82;99770.25;5067245;28;20294;-77
2023/09/24 00:04:39;;;;;;;3.05;1.70;;;;;;;24.60;92.20;99793.41;5063382;28;20201;-78
2023/09/24 00:07:06;;;;;;;10.00;2.55;;;;;;;24.35;93.22;99758.38;5070870;28;20203;-76
2023/09/24 00:09:33;;;;;;;1.00;1.00;;;;;;;24.45;94.03;99780.84;5072280;28;20645;-78
2023/09/24 00:11:59;;;;;;;1.08;0.98;;;;;;;24.44;94.27;99786.22;5070596;28;20218;-77
2023/09/24 00:14:27;;;;;;;1.77;1.35;;;;;;;24.40;93.95;99782.84;5084338;28;20219;-77
2023/09/24 00:16:55;;;;;;;1.48;1.20;;;;;;;24.37;94.07;99785.66;5070733;28;20221;-77
2023/09/24 00:19:23;;;;;;;3.47;1.95;;;;;;;24.38;93.00;99786.50;5070448;28;20572;-76
2023/09/24 00:21:50;;;;;;;1.75;1.13;;;;;;;24.28;92.22;99783.44;5077221;28;20224;-76
2023/09/24 00:24:18;;;;;;;2.67;1.58;;;;;;;23.67;93.69;99721.72;5084702;28;20264;-75
2023/09/24 00:26:45;;;;;;;4.00;1.98;;;;;;;24.09;94.92;99820.47;5083831;28;20233;-77
2023/09/24 00:29:11;;;;;;;1.52;1.33;;;;;;;24.19;93.31;99827.09;5075158;28;20191;-77
2023/09/24 00:31:38;;;;;;;3.00;1.42;;;;;;;24.18;92.96;99827.19;5058136;28;20197;-77
2023/09/24 00:34:06;;;;;;;3.60;1.75;;;;;;;24.38;90.72;99834.22;5074880;28;20207;-76
2023/09/24 00:36:33;;;;;;;2.33;1.55;;;;;;;24.31;90.69;99830.13;5074232;28;20281;-76
2023/09/24 00:39:01;;;;;;;3.95;1.40;;;;;;;24.23;90.92;99829.59;5038821;28;20280;-77
2023/09/24 00:41:28;;;;;;;1.58;1.00;;;;;;;24.21;91.17;99842.06;5073644;28;20227;-77
2023/09/24 00:43:55;;;;;;;2.03;1.13;;;;;;;24.24;90.72;99839.28;5081375;28;20194;-76
2023/09/24 00:46:22;;;;;;;3.00;1.20;;;;;;;24.16;92.11;99839.63;5074638;28;20234;-77
2023/09/24 00:48:50;;;;;;;2.50;1.30;;;;;;;24.11;92.53;99826.53;5072695;28;20195;-77
2023/09/24 00:51:22;;;;;;;27.33;2.38;;;;;;;24.05;94.16;99841.84;5073755;28;20226;-77
2023/09/24 00:53:51;;;;;;;5.97;2.05;;;;;;;23.95;94.09;99846.69;5075946;28;20658;-77
2023/09/24 00:56:18;;;;;;;2.30;1.08;;;;;;;24.03;93.45;99851.66;5074012;28;20214;-77
2023/09/24 00:58:50;;;;;;;2.42;1.20;;;;;;;24.07;94.90;99843.53;5072253;28;20199;-77
2023/09/24 01:01:17;;;;;;;10.43;1.67;;;;;;;24.06;94.59;99846.22;5067676;28;20280;-76
2023/09/24 01:03:46;;;;;;;1.95;1.20;;;;;;;23.87;95.41;99851.44;5087504;28;20201;-78
2023/09/24 01:06:14;;;;;;;3.13;1.20;;;;;;;23.85;96.28;99863.91;5069941;28;20651;-76
2023/09/24 01:08:43;;;;;;;1.95;1.17;;;;;;;24.09;94.88;99859.31;5073473;28;20272;-78
2023/09/24 01:11:10;;;;;;;1.48;1.35;;;;;;;23.87;95.54;99827.63;5074863;28;20222;-78
2023/09/24 01:13:38;;;;;;;2.38;1.27;;;;;;;24.09;94.98;99849.59;5081079;28;20222;-77
2023/09/24 01:16:06;;;;;;;3.28;1.45;;;;;;;24.02;95.38;99861.38;5073396;28;20242;-76
2023/09/24 01:18:36;;;;;;;1.63;1.52;;;;;;;23.41;96.18;99754.59;5073536;28;20313;-77
2023/09/24 01:21:05;;;;;;;3.75;1.40;;;;;;;23.91;97.31;99857.47;5075346;28;20313;-78
2023/09/24 01:23:36;;;;;;;2.95;1.80;;;;;;;23.92;98.69;99865.38;5076628;28;20217;-78
2023/09/24 01:26:03;;;;;;;2.03;1.20;;;;;;;23.60;99.74;99837.59;5072857;28;20671;-74
2023/09/24 01:28:30;;;;;;;3.65;1.73;;;;;;;23.78;100.00;99877.47;5072683;28;20206;-77
2023/09/24 01:30:57;;;;;;;1.98;1.20;;;;;;;23.86;100.00;99870.94;5076258;28;20592;-77
2023/09/24 01:33:24;;;;;;;3.35;1.60;;;;;;;23.81;100.00;99866.75;5073470;28;20206;-76
2023/09/24 01:35:51;;;;;;;2.33;1.10;;;;;;;23.76;100.00;99869.56;5072597;28;20226;-76
2023/09/24 01:38:18;;;;;;;4.57;1.67;;;;;;;23.73;100.00;99875.00;5037062;28;20585;-76
2023/09/24 01:40:47;;;;;;;18.10;2.08;;;;;;;23.58;100.00;99834.16;5072836;28;20594;-76
2023/09/24 01:43:14;;;;;;;5.90;1.98;;;;;;;23.68;100.00;99861.13;5072122;28;20203;-77
2023/09/24 01:45:41;;;;;;;5.63;1.88;;;;;;;23.65;100.00;99850.66;5072071;28;20202;-77
2023/09/24 01:48:08;;;;;;;4.13;1.95;;;;;;;23.57;100.00;99863.34;5088794;28;20209;-76
2023/09/24 01:50:36;;;;;;;2.50;1.25;;;;;;;23.45;100.00;99863.84;5085015;28;20190;-76
2023/09/24 01:53:04;;;;;;;2.65;1.15;;;;;;;23.21;100.00;99834.78;5088209;28;20191;-76
2023/09/24 01:55:31;;;;;;;2.75;1.55;;;;;;;23.38;100.00;99851.75;5080500;28;20191;-77
2023/09/24 01:58:00;;;;;;;3.10;1.40;;;;;;;23.46;100.00;99866.44;5083433;28;20281;-78
2023/09/24 02:00:27;;;;;;;2.75;1.40;;;;;;;23.19;100.00;99831.31;5077022;28;20222;-77
2023/09/24 02:02:56;;;;;;;6.55;2.30;;;;;;;23.43;100.00;99863.94;5077773;28;20646;-77
2023/09/24 02:05:23;;;;;;;2.15;1.10;;;;;;;23.45;100.00;99864.72;5075160;28;20328;-78
2023/09/24 02:07:51;;;;;;;3.60;1.52;;;;;;;23.40;100.00;99855.22;5005944;28;20289;-77
2023/09/24 02:10:19;;;;;;;2.70;1.10;;;;;;;23.41;100.00;99857.81;5072149;28;20210;-76
2023/09/24 02:12:46;;;;;;;5.68;1.42;;;;;;;23.32;100.00;99839.66;5070846;28;20577;-77
2023/09/24 02:15:18;;;;;;;3.58;1.38;;;;;;;23.43;100.00;99857.75;5047624;28;20717;-76
2023/09/24 02:17:47;;;;;;;2.75;1.70;;;;;;;23.31;100.00;99848.50;5076311;28;20633;-76
2023/09/24 02:20:22;;;;;;;2.03;1.13;;;;;;;23.16;100.00;99836.75;5043520;28;20225;-76
2023/09/24 02:22:50;;;;;;;2.72;1.92;;;;;;;23.17;100.00;99851.72;5068152;28;20203;-76
2023/09/24 02:25:18;;;;;;;2.63;1.02;;;;;;;23.06;100.00;99840.69;5071691;28;20203;-76
2023/09/24 02:27:46;;;;;;;1.27;0.98;;;;;;;22.97;100.00;99832.28;5072056;28;20580;-76
2023/09/24 02:30:15;;;;;;;4.72;1.75;;;;;;;22.95;100.00;99837.59;5040166;28;20207;-75
2023/09/24 02:32:43;;;;;;;4.18;1.15;;;;;;;22.96;100.00;99835.81;5072234;28;20226;-76
2023/09/24 02:35:11;;;;;;;1.77;1.13;;;;;;;22.88;100.00;99836.13;5072363;28;20205;-77
2023/09/24 02:37:38;;;;;;;4.05;1.60;;;;;;;22.82;100.00;99809.94;5037283;28;20282;-77
2023/09/24 02:40:10;;;;;;;2.17;1.23;;;;;;;22.90;100.00;99823.69;5073268;28;20297;-77
2023/09/24 02:42:37;;;;;;;3.05;1.35;;;;;;;22.86;100.00;99822.13;5036999;28;20195;-74
2023/09/24 02:45:07;;;;;;;1.52;1.20;;;;;;;22.77;100.00;99824.22;5079908;28;20285;-78
2023/09/24 02:47:35;;;;;;;2.95;1.40;;;;;;;22.20;100.00;99715.41;5079551;28;20198;-78
2023/09/24 02:50:04;;;;;;;4.68;1.98;;;;;;;22.61;100.00;99818.66;5078271;28;20199;-77
2023/09/24 02:52:31;;;;;;;2.80;1.55;;;;;;;22.47;100.00;99791.91;5074377;28;20198;-77
2023/09/24 02:54:58;;;;;;;1.98;1.30;;;;;;;22.45;100.00;99822.78;5082461;28;20194;-78
2023/09/24 02:57:25;;;;;;;2.50;1.30;;;;;;;22.31;100.00;99818.03;5040123;28;20195;-77
2023/09/24 02:59:52;;;;;;;3.70;1.90;;;;;;;22.20;100.00;99821.06;5044301;28;20206;-78
2023/09/24 03:02:18;;;;;;;1.92;1.20;;;;;;;22.17;100.00;99818.53;5072090;28;20314;-77
2023/09/24 03:04:46;;;;;;;13.35;1.48;;;;;;;22.19;100.00;99824.59;5080556;28;20217;-78
2023/09/24 03:07:14;;;;;;;4.90;2.22;;;;;;;22.11;100.00;99821.41;5089943;28;20195;-78
2023/09/24 03:09:41;;;;;;;3.72;2.53;;;;;;;22.10;100.00;99826.72;5074344;28;20255;-78
2023/09/24 03:12:08;;;;;;;2.60;1.48;;;;;;;21.98;100.00;99819.22;5088355;28;20379;-78
2023/09/24 03:14:35;;;;;;;2.17;1.38;;;;;;;21.74;100.00;99794.53;5071572;28;20305;-79
2023/09/24 03:17:02;;;;;;;6.07;2.05;;;;;;;21.89;100.00;99815.13;5072308;28;20299;-75
2023/09/24 03:19:29;;;;;;;3.38;1.33;;;;;;;21.83;100.00;99817.97;5067386;28;20719;-76
2023/09/24 03:21:57;;;;;;;2.95;1.63;;;;;;;21.68;100.00;99785.06;5079390;28;20218;-78
2023/09/24 03:24:24;;;;;;;7.60;1.67;;;;;;;21.65;100.00;99811.53;5092137;28;20676;-79
2023/09/24 03:26:51;;;;;;;4.03;1.52;;;;;;;21.36;100.00;99777.41;5085521;28;20660;-79
2023/09/24 03:29:19;;;;;;;5.47;2.30;;;;;;;21.62;100.00;99816.06;5083856;28;20611;-79
2023/09/24 03:31:46;;;;;;;2.85;1.73;;;;;;;21.67;100.00;99822.06;5071743;28;20285;-78
2023/09/24 03:34:13;;;;;;;7.20;2.10;;;;;;;21.60;100.00;99808.22;5071985;28;20210;-78
2023/09/24 03:36:41;;;;;;;3.03;1.65;;;;;;;21.65;100.00;99802.78;5071678;28;20197;-78
2023/09/24 03:39:09;;;;;;;3.10;1.75;;;;;;;21.72;100.00;99817.50;5070734;28;20818;-78
2023/09/24 03:41:36;;;;;;;2.53;1.58;;;;;;;21.72;100.00;99814.84;5071468;28;20820;-77
2023/09/24 03:44:03;;;;;;;2.92;1.55;;;;;;;21.59;100.00;99795.94;5074699;28;20651;-78
2023/09/24 03:46:30;;;;;;;5.18;1.95;;;;;;;21.79;100.00;99821.66;5077952;28;20222;-78
2023/09/24 03:48:57;;;;;;;3.47;1.63;;;;;;;21.80;100.00;99828.63;5070531;28;20278;-78
2023/09/24 03:51:24;;;;;;;1.70;1.30;;;;;;;21.79;100.00;99833.97;5085522;28;20230;-77
2023/09/24 03:53:51;;;;;;;4.00;1.83;;;;;;;21.79;100.00;99829.56;5070706;28;20713;-78
2023/09/24 03:56:20;;;;;;;24.15;2.03;;;;;;;21.87;100.00;99826.66;5051036;28;20234;-77
2023/09/24 03:58:47;;;;;;;3.92;1.67;;;;;;;21.82;100.00;99828.59;5059438;28;20280;-78
2023/09/24 04:01:13;;;;;;;1.60;1.50;;;;;;;21.79;100.00;99833.97;5072398;28;20771;-77
2023/09/24 04:03:40;;;;;;;1.73;1.60;;;;;;;21.77;100.00;99828.75;5072825;28;20351;-78
2023/09/24 04:06:11;;;;;;;4.80;1.85;;;;;;;21.75;100.00;99806.84;5075207;28;20191;-75
2023/09/24 04:08:39;;;;;;;3.50;2.17;;;;;;;21.75;100.00;99833.22;5047409;28;20195;-77
2023/09/24 04:11:11;;;;;;;5.70;1.88;;;;;;;21.91;100.00;99833.56;5072087;28;20206;-77
2023/09/24 04:13:40;;;;;;;2.38;1.38;;;;;;;21.59;100.00;99795.06;5070282;28;20313;-78
2023/09/24 04:16:09;;;;;;;3.78;2.00;;;;;;;21.75;100.00;99833.22;5071003;28;20202;-78
2023/09/24 04:18:37;;;;;;;4.30;1.45;;;;;;;21.66;100.00;99834.38;5073288;28;20213;-79
2023/09/24 04:21:04;;;;;;;3.58;1.60;;;;;;;21.71;100.00;99847.44;5073966;28;20233;-79
2023/09/24 04:23:31;;;;;;;0.90;0.90;;;;;;;21.76;100.00;99853.41;5046666;28;20206;-79
2023/09/24 04:25:57;;;;;;;1.58;1.40;;;;;;;21.86;100.00;99854.84;5070907;28;20187;-76
2023/09/24 04:28:24;;;;;;;2.15;1.30;;;;;;;21.90;100.00;99861.78;5071088;28;20615;-79
2023/09/24 04:30:52;;;;;;;2.25;1.27;;;;;;;21.89;100.00;99845.94;5077009;28;20216;-78
2023/09/24 04:33:19;;;;;;;2.40;1.45;;;;;;;21.95;100.00;99867.75;5044318;28;20195;-74
2023/09/24 04:35:47;;;;;;;1.85;1.75;;;;;;;22.09;100.00;99867.25;5084699;28;20206;-77
2023/09/24 04:38:14;;;;;;;1.50;1.20;;;;;;;22.01;100.00;99846.38;5052996;28;20255;-77
2023/09/24 04:40:41;;;;;;;2.17;1.33;;;;;;;22.03;100.00;99838.44;5070669;28;20562;-76
2023/09/24 04:43:08;;;;;;;2.60;1.70;;;;;;;22.02;100.00;99845.47;5071065;28;20218;-79
2023/09/24 04:45:36;;;;;;;1.48;1.33;;;;;;;21.88;100.00;99829.25;5070385;28;20660;-76
2023/09/24 04:48:05;;;;;;;1.85;1.45;;;;;;;21.97;100.00;99855.38;5070029;28;20261;-73
2023/09/24 04:50:32;;;;;;;2.65;1.38;;;;;;;21.80;100.00;99847.09;5034860;28;20222;-76
2023/09/24 04:52:59;;;;;;;1.77;1.40;;;;;;;21.62;100.00;99847.72;5071220;28;20195;-76
2023/09/24 04:55:27;;;;;;;13.90;6.65;;;;;;;21.65;100.00;99842.38;5080114;28;20741;-79
2023/09/24 04:57:54;;;;;;;3.20;1.88;;;;;;;21.70;100.00;99848.34;5085357;28;20218;-75
2023/09/24 05:00:21;;;;;;;3.03;1.40;;;;;;;21.76;100.00;99850.75;5091006;28;20241;-76
2023/09/24 05:02:48;;;;;;;3.72;1.65;;;;;;;21.82;100.00;99850.56;5078720;28;20218;-78
2023/09/24 05:05:16;;;;;;;2.83;1.58;;;;;;;21.96;100.00;99864.19;5032359;28;20264;-82
2023/09/24 05:07:43;;;;;;;2.72;1.83;;;;;;;22.01;100.00;99856.94;5069702;28;20203;-77
2023/09/24 05:10:10;;;;;;;2.72;1.23;;;;;;;21.91;100.00;99865.25;5070291;28;20309;-75
2023/09/24 05:12:38;;;;;;;4.70;1.75;;;;;;;21.83;100.00;99862.00;5038370;28;20202;-76
2023/09/24 05:15:05;;;;;;;3.03;1.75;;;;;;;21.89;100.00;99851.22;5074588;28;20222;-75
2023/09/24 05:17:33;;;;;;;2.38;1.45;;;;;;;21.79;100.00;99863.88;5082483;28;20679;-76
2023/09/24 05:20:00;;;;;;;2.30;1.08;;;;;;;21.98;100.00;99867.63;5082697;28;20214;-76
2023/09/24 05:22:28;;;;;;;1.90;1.50;;;;;;;22.19;100.00;99868.66;5087160;28;20218;-77
2023/09/24 05:24:55;;;;;;;1.85;1.00;;;;;;;22.23;100.00;99847.34;5081542;28;20206;-79
2023/09/24 05:27:22;;;;;;;11.30;1.50;;;;;;;22.48;100.00;99867.59;5082400;28;20206;-80
2023/09/24 05:29:50;;;;;;;0.80;0.80;;;;;;;22.67;100.00;99869.53;5082575;28;20194;-79
2023/09/24 05:32:17;;;;;;;2.67;1.52;;;;;;;22.83;100.00;99869.78;5077076;28;20207;-78
2023/09/24 05:34:44;;;;;;;2.58;1.55;;;;;;;23.00;100.00;99863.88;5080290;28;20210;-79
2023/09/24 05:37:11;;;;;;;1.80;1.38;;;;;;;23.26;100.00;99876.09;5081300;28;20207;-81
2023/09/24 05:39:39;;;;;;;1.35;1.05;;;;;;;23.53;100.00;99878.50;5074463;28;20289;-81
2023/09/24 05:42:06;;;;;;;5.88;2.55;;;;;;;23.69;100.00;99884.00;5082059;28;20233;-78
2023/09/24 05:44:33;;;;;;;3.25;1.75;;;;;;;23.68;100.00;99887.59;5037537;28;20191;-79
2023/09/24 05:47:00;;;;;;;3.00;1.73;;;;;;;23.83;100.00;99894.88;5076918;28;20206;-75
2023/09/24 05:49:27;;;;;;;1.30;1.20;;;;;;;23.98;100.00;99891.59;5083889;28;20194;-75
2023/09/24 05:51:55;;;;;;;2.05;1.20;;;;;;;24.19;100.00;99908.38;5077576;28;20199;-76
2023/09/24 05:54:22;;;;;;;21.20;2.78;;;;;;;24.25;100.00;99907.25;5073347;28;20294;-74
2023/09/24 05:56:50;;;;;;;2.22;1.88;;;;;;;24.50;100.00;99929.09;5073902;28;20678;-73
2023/09/24 05:59:19;;;;;;;1.70;1.38;;;;;;;24.25;100.00;99924.03;5082077;28;20206;-75
2023/09/24 06:01:45;;;;;;;2.67;1.83;;;;;;;24.23;100.00;99920.56;5076021;28;20215;-78
2023/09/24 06:04:12;;;;;;;1.60;1.58;;;;;;;24.17;100.00;99919.06;5078052;28;20220;-78
2023/09/24 06:06:41;;;;;;;1.17;1.00;;;;;;;24.24;100.00;99914.34;5076326;28;20206;-79
2023/09/24 06:09:09;;;;;;;2.30;1.52;;;;;;;24.34;100.00;99928.03;5079740;28;20206;-77
2023/09/24 06:11:37;;;;;;;1.88;1.77;;;;;;;24.03;100.00;99941.72;5075711;28;20201;-77
2023/09/24 06:14:08;;;;;;;1.23;1.08;;;;;;;24.32;100.00;99946.69;5079023;28;20634;-80
2023/09/24 06:16:35;;;;;;;1.23;0.93;;;;;;;24.22;100.00;99945.38;5073509;28;20201;-79
2023/09/24 06:19:02;;;;;;;2.38;1.30;;;;;;;24.20;100.00;99949.84;5070561;28;20226;-76
2023/09/24 06:21:29;;;;;;;15.35;1.83;;;;;;;24.18;100.00;99933.16;5074764;28;20198;-79
2023/09/24 06:23:57;;;;;;;1.90;1.13;;;;;;;24.33;100.00;99955.50;5077138;28;20205;-78
2023/09/24 06:26:24;;;;;;;2.72;1.40;;;;;;;24.42;100.00;99940.03;5082924;28;20298;-80
2023/09/24 06:28:50;;;;;;;1.20;1.20;;;;;;;24.67;100.00;99953.94;5080901;28;20203;-79
2023/09/24 06:31:19;;;;;;;1.75;1.30;;;;;;;24.97;100.00;99954.34;5081219;28;20300;-79
2023/09/24 06:33:46;;;;;;;4.40;2.08;;;;;;;24.79;100.00;99941.94;5074091;28;20252;-80
2023/09/24 06:36:12;;;;;;;2.67;1.55;;;;;;;24.73;100.00;99960.75;5072793;28;20191;-80
2023/09/24 06:38:39;;;;;;;1.48;1.35;;;;;;;25.00;100.00;99970.16;5072480;28;20187;-80
2023/09/24 06:41:06;;;;;;;1.75;1.17;;;;;;;24.99;100.00;99957.81;5071489;28;20211;-80
2023/09/24 06:43:34;;;;;;;2.10;1.15;;;;;;;25.15;100.00;99995.97;5072325;28;20221;-76
2023/09/24 06:46:04;;;;;;;2.10;1.15;;;;;;;24.84;100.00;99973.56;5072755;28;20203;-75
2023/09/24 06:48:32;;;;;;;6.50;1.37;;;;;;;24.90;100.00;99990.06;5072417;28;20921;-79
2023/09/24 06:51:06;;;;;;;1.90;1.48;;;;;;;24.98;100.00;99974.66;5071796;28;20198;-75
2023/09/24 06:53:33;;;;;;;1.13;1.02;;;;;;;24.97;100.00;99988.84;5067073;28;20211;-79
2023/09/24 06:56:00;;;;;;;4.72;1.63;;;;;;;24.84;100.00;99995.66;5063494;28;20738;-78
2023/09/24 06:58:27;;;;;;;1.02;1.02;;;;;;;24.42;100.00;99978.94;5072374;28;20584;-77
2023/09/24 07:00:54;;;;;;;2.30;1.50;;;;;;;24.73;100.00;99991.72;5023291;28;20698;-79
2023/09/24 07:03:20;;;;;;;3.58;2.38;;;;;;;24.87;100.00;99987.53;5026742;28;20241;-77
2023/09/24 07:05:49;;;;;;;1.83;1.67;;;;;;;24.93;100.00;99984.63;5070731;28;20195;-76
2023/09/24 07:08:16;;;;;;;1.45;1.33;;;;;;;24.79;100.00;99987.03;5035963;28;20587;-78
2023/09/24 07:10:43;;;;;;;1.05;1.00;;;;;;;24.81;100.00;99987.78;5073117;28;20273;-74
2023/09/24 07:13:09;;;;;;;1.58;1.50;;;;;;;25.11;100.00;99993.56;5035303;28;20202;-77
2023/09/24 07:15:36;;;;;;;2.47;1.20;;;;;;;25.07;100.00;99984.00;5058262;28;20301;-76
2023/09/24 07:18:04;;;;;;;0.85;0.85;;;;;;;25.37;100.00;100022.38;5071478;28;20191;-77
2023/09/24 07:20:30;;;;;;;1.52;1.48;;;;;;;25.07;100.00;100005.22;5071268;28;20199;-78
2023/09/24 07:22:59;;;;;;;1.85;1.40;;;;;;;24.76;100.00;99946.50;5070588;28;20700;-76
2023/09/24 07:25:25;;;;;;;2.67;1.45;;;;;;;25.10;100.00;100013.06;5070773;28;20278;-74
2023/09/24 07:27:52;;;;;;;9.77;1.65;;;;;;;25.36;100.00;99995.94;5071134;28;20693;-79
2023/09/24 07:30:19;;;;;;;1.80;1.00;;;;;;;25.54;100.00;99995.09;5071304;28;20686;-77
2023/09/24 07:32:47;;;;;;;1.60;1.50;;;;;;;25.68;100.00;100000.59;5068977;28;20642;-77
2023/09/24 07:35:13;;;;;;;1.85;1.38;;;;;;;25.59;100.00;100011.66;5070679;28;20193;-78
2023/09/24 07:37:40;;;;;;;1.98;1.60;;;;;;;25.89;100.00;100018.16;5071665;28;20203;-76
2023/09/24 07:40:10;;;;;;;1.10;0.90;;;;;;;26.14;100.00;100009.84;5066768;28;20206;-74
2023/09/24 07:42:37;;;;;;;1.40;1.30;;;;;;;25.96;99.35;99974.41;5028565;28;20258;-75
2023/09/24 07:45:04;;;;;;;1.20;1.10;;;;;;;26.34;97.63;100000.88;5061554;28;20709;-78
2023/09/24 07:47:31;;;;;;;4.05;2.72;;;;;;;26.48;96.71;100003.69;5057164;28;20246;-74
2023/09/24 07:49:58;;;;;;;0.80;0.80;;;;;;;26.45;94.49;100009.16;5070454;28;20221;-78
2023/09/24 07:52:24;;;;;;;0.77;0.73;;;;;;;26.27;94.66;99984.38;5070628;28;20277;-78
2023/09/24 07:54:51;;;;;;;4.00;1.60;;;;;;;26.44;94.38;99996.81;5070375;28;20203;-80
2023/09/24 07:57:19;;;;;;;8.23;2.90;;;;;;;26.62;94.32;100012.69;5070874;28;20237;-75
2023/09/24 07:59:46;;;;;;;5.20;2.28;;;;;;;26.14;97.24;99930.97;5070822;28;20284;-77
2023/09/24 08:02:13;;;;;;;4.20;1.55;;;;;;;26.68;93.27;100011.53;5071219;28;20650;-76
2023/09/24 08:04:40;;;;;;;4.85;1.52;;;;;;;26.81;92.39;100011.72;5070036;28;20654;-78
2023/09/24 08:07:06;;;;;;;3.92;1.40;;;;;;;26.79;90.84;99993.16;5071078;28;20193;-77
2023/09/24 08:09:36;;;;;;;3.10;1.65;;;;;;;26.54;90.69;99961.69;5069441;28;20195;-76
2023/09/24 08:12:03;;;;;;;4.07;1.42;;;;;;;27.09;89.99;100012.88;5054401;28;20196;-76
2023/09/24 08:14:31;;;;;;;6.30;1.80;;;;;;;26.99;90.26;99985.03;5065587;28;20250;-76
2023/09/24 08:16:58;;;;;;;3.90;2.15;;;;;;;27.11;90.64;100002.97;5070560;28;20206;-75
2023/09/24 08:19:30;;;;;;;4.15;1.83;;;;;;;27.29;89.35;100000.28;5071129;28;20241;-75
2023/09/24 08:21:57;;;;;;;2.87;1.37;;;;;;;27.27;86.59;100016.34;5070261;28;20203;-75
2023/09/24 08:24:24;;;;;;;3.25;1.45;;;;;;;27.47;84.15;100017.91;5070009;28;20223;-74
2023/09/24 08:26:51;;;;;;;2.42;1.63;;;;;;;27.36;85.00;100017.66;5067864;28;20186;-73
2023/09/24 08:29:17;;;;;;;28.48;7.80;;;;;;;27.53;84.49;100017.59;5071922;28;20199;-74
2023/09/24 08:31:46;;;;;;;5.88;2.72;;;;;;;27.84;82.65;100011.41;5070065;28;20297;-76
2023/09/24 08:34:12;;;;;;;2.33;1.27;;;;;;;27.79;81.61;100008.97;5066190;28;20210;-77
2023/09/24 08:36:39;;;;;;;4.40;1.80;;;;;;;28.00;82.01;100005.09;5071041;28;20201;-75
2023/09/24 08:39:08;;;;;;;5.85;2.38;;;;;;;27.93;81.86;100010.88;5071326;28;20260;-76
2023/09/24 08:41:43;;;;;;;3.17;1.23;;;;;;;27.98;81.57;100004.34;5070117;28;20584;-77
2023/09/24 08:44:15;;;;;;;3.70;1.35;;;;;;;28.16;80.78;100007.75;5069925;28;20308;-80
2023/09/24 08:46:42;;;;;;;3.17;1.38;;;;;;;28.24;80.08;99994.00;5072324;28;20203;-77
2023/09/24 08:49:12;;;;;;;2.28;1.27;;;;;;;27.79;78.51;99923.69;5074238;28;20242;-78
2023/09/24 08:51:40;;;;;;;3.63;1.63;;;;;;;28.49;77.88;100011.13;5068521;28;20281;-77
2023/09/24 08:54:07;;;;;;;3.08;1.63;;;;;;;28.35;77.36;100007.56;5035120;28;20253;-76
2023/09/24 08:56:35;;;;;;;2.63;1.85;;;;;;;28.31;78.12;100000.69;5066931;28;20195;-74
2023/09/24 08:59:02;;;;;;;2.25;1.38;;;;;;;28.20;77.06;100005.78;5038935;28;20197;-77
2023/09/24 09:01:29;;;;;;;3.53;2.08;;;;;;;28.26;77.79;100008.06;5073511;28;20252;-78
2023/09/24 09:03:56;;;;;;;2.42;1.15;;;;;;;27.68;77.33;99912.84;5074154;28;20233;-77
2023/09/24 09:06:32;;;;;;;2.63;1.40;;;;;;;28.64;75.84;100006.69;5074088;28;21010;-78
2023/09/24 09:08:59;;;;;;;5.45;3.03;;;;;;;28.69;76.31;100003.75;5073955;28;20198;-78
2023/09/24 09:11:38;;;;;;;2.95;1.48;;;;;;;28.90;75.17;100000.63;5073961;28;20698;-78
2023/09/24 09:14:06;;;;;;;3.17;1.67;;;;;;;28.70;76.11;99992.97;5038729;28;20335;-77
2023/09/24 09:16:33;;;;;;;2.17;1.50;;;;;;;28.51;77.07;100008.34;5073946;28;20199;-77
2023/09/24 09:19:01;;;;;;;3.28;1.60;;;;;;;28.47;76.74;99993.47;5074437;28;20209;-77
2023/09/24 09:21:28;;;;;;;2.78;1.42;;;;;;;28.45;76.67;99998.91;5022013;28;20195;-76
2023/09/24 09:23:56;;;;;;;1.60;1.42;;;;;;;28.85;76.29;99985.84;5073109;28;20222;-75
2023/09/24 09:26:27;;;;;;;4.13;1.73;;;;;;;28.58;74.95;99894.94;5073256;28;20689;-75
2023/09/24 09:28:54;;;;;;;3.42;1.90;;;;;;;29.31;73.87;99991.88;5068699;28;20769;-76
2023/09/24 09:31:21;;;;;;;3.10;1.92;;;;;;;29.32;72.15;99990.94;5073041;28;20648;-76
2023/09/24 09:33:48;;;;;;;2.22;1.52;;;;;;;29.17;72.17;99986.50;5072399;28;20611;-74
2023/09/24 09:36:23;;;;;;;7.47;1.88;;;;;;;29.36;71.67;99989.78;5066920;28;20203;-75
2023/09/24 09:38:50;;;;;;;2.88;1.67;;;;;;;29.21;71.84;99991.56;5054241;28;20202;-76
2023/09/24 09:41:20;;;;;;;1.98;1.42;;;;;;;29.20;72.67;99994.31;5072618;28;20200;-76
2023/09/24 09:43:48;;;;;;;5.75;1.80;;;;;;;29.34;70.59;99989.88;5072397;28;20219;-76
2023/09/24 09:46:18;;;;;;;3.67;1.83;;;;;;;29.36;71.19;99981.75;5072334;28;20206;-75
2023/09/24 09:48:51;;;;;;;3.03;2.38;;;;;;;29.50;70.00;99979.06;5072663;28;20239;-75
2023/09/24 09:51:20;;;;;;;5.15;1.55;;;;;;;29.58;71.07;99986.56;5072936;28;20217;-75
2023/09/24 09:53:48;;;;;;;5.70;1.90;;;;;;;29.81;68.11;99980.59;5059054;28;20199;-74
2023/09/24 09:56:15;;;;;;;3.10;1.63;;;;;;;29.99;67.34;99982.94;5072903;28;20203;-75
2023/09/24 09:58:47;;;;;;;5.22;1.83;;;;;;;29.84;68.53;99973.25;5072597;28;20213;-75
2023/09/24 10:01:15;;;;;;;2.97;1.65;;;;;;;29.85;68.40;99974.97;5054039;28;20264;-69
2023/09/24 10:03:45;;;;;;;5.35;1.70;;;;;;;30.11;68.98;99980.41;5072632;28;20222;-73
2023/09/24 10:06:13;;;;;;;2.55;1.67;;;;;;;29.75;67.39;99984.50;5062943;28;20227;-74
2023/09/24 10:08:44;;;;;;;3.28;1.20;;;;;;;29.76;67.01;99962.16;5026089;28;20694;-75
2023/09/24 10:11:12;;;;;;;3.95;1.67;;;;;;;29.68;69.16;99955.63;5072869;28;20694;-74
2023/09/24 10:13:48;;;;;;;7.38;2.40;;;;;;;29.92;66.39;99978.09;5074522;28;20290;-73
2023/09/24 10:16:35;;;;;;;6.35;1.70;;;;;;;30.23;65.10;99958.16;5078557;28;20221;-72
2023/09/24 10:19:03;;;;;;;5.53;1.52;;;;;;;29.95;64.78;99935.97;5043836;28;20206;-72
2023/09/24 10:21:31;;;;;;;3.17;1.42;;;;;;;30.18;64.52;99971.00;5072457;28;20199;-73
2023/09/24 10:23:59;;;;;;;2.83;1.20;;;;;;;29.97;63.80;99968.78;5072469;28;20226;-74
2023/09/24 10:26:49;;;;;;;14.88;1.60;;;;;;;30.01;63.83;99964.09;5072516;28;20679;-73
2023/09/24 10:29:18;;;;;;;5.72;1.70;;;;;;;30.03;64.73;99964.88;5072598;28;20203;-72
2023/09/24 10:32:15;;;;;;;4.10;1.73;;;;;;;29.94;63.83;99968.13;5072015;28;20701;-73
2023/09/24 10:35:10;;;;;;;3.17;1.23;;;;;;;30.24;62.65;99965.22;5029807;28;20204;-73
2023/09/24 10:37:56;;;;;;;3.20;1.58;;;;;;;30.37;63.10;99958.94;5028721;28;20246;-72
2023/09/24 10:40:26;;;;;;;2.97;1.17;;;;;;;30.49;60.73;99955.47;5029971;28;20269;-73
2023/09/24 10:43:11;;;;;;;2.00;1.45;;;;;;;30.82;59.62;99954.06;5029472;28;20204;-70
2023/09/24 10:45:40;;;;;;;16.10;2.22;;;;;;;30.91;56.71;99959.63;5021127;28;20196;-76
2023/09/24 10:48:07;;;;;;;3.38;1.70;;;;;;;30.80;55.75;99959.53;5028609;28;20207;-75
2023/09/24 10:50:33;;;;;;;2.10;1.08;;;;;;;31.04;56.02;99953.44;5022772;28;20193;-76
2023/09/24 10:53:02;;;;;;;3.05;1.50;;;;;;;31.04;55.02;99961.47;5024163;28;20211;-76
2023/09/24 10:55:38;;;;;;;2.90;1.77;;;;;;;30.90;53.83;99928.44;5028943;28;20204;-76
2023/09/24 10:58:09;;;;;;;3.22;1.48;;;;;;;31.13;54.18;99931.34;4984736;28;20259;-76
2023/09/24 11:00:36;;;;;;;3.42;1.55;;;;;;;31.28;53.26;99946.31;5029318;28;20213;-75
2023/09/24 11:03:06;;;;;;;15.45;1.50;;;;;;;30.75;52.46;99849.19;5024391;28;20637;-71
2023/09/24 11:05:36;;;;;;;5.25;2.35;;;;;;;31.19;53.15;99946.97;5021515;28;20707;-73
2023/09/24 11:08:04;;;;;;;3.97;2.55;;;;;;;30.90;53.04;99896.31;4996315;28;20674;-74
2023/09/24 11:10:30;;;;;;;1.80;1.27;;;;;;;31.32;53.72;99945.13;5028557;28;20200;-75
2023/09/24 11:13:00;;;;;;;1.98;1.25;;;;;;;31.49;52.69;99931.34;5062537;28;20241;-74
2023/09/24 11:15:31;;;;;;;2.78;1.35;;;;;;;31.52;52.23;99941.88;5060993;28;20288;-75
2023/09/24 11:17:58;;;;;;;3.05;1.65;;;;;;;31.66;52.54;99936.34;5038317;28;20348;-74
2023/09/24 11:20:28;;;;;;;4.00;2.10;;;;;;;31.42;51.53;99857.72;5068004;28;20278;-75
2023/09/24 11:22:59;;;;;;;3.58;2.20;;;;;;;31.85;51.51;99933.16;5075485;28;20260;-75
2023/09/24 11:25:27;;;;;;;3.80;1.42;;;;;;;31.51;51.14;99886.50;5071017;28;20268;-74
2023/09/24 11:27:56;;;;;;;4.20;1.63;;;;;;;31.79;51.50;99929.06;5070974;28;20215;-72
2023/09/24 11:30:27;;;;;;;5.38;2.20;;;;;;;31.75;51.00;99924.09;5071757;28;20202;-75
2023/09/24 11:32:54;;;;;;;15.13;1.58;;;;;;;31.99;50.64;99929.41;5071278;28;20218;-73